Blue Kite — WDJ2918 — position and weather

sailwx.info

Track history (hours):
 
Tides and Currents Weather Stations Pressure Air Temp Water Temp Dewpoint Dewpoint Depression Visibility Wind Speed Wind Dir Waves Ship Positions

Blue Kite

Owner: Blue Kite Management LLC, Saint James, NY. More information available from US FCC via Universal Licensing System.

Last reported at 2018-Jun-11 15:50 UTC. Time now 2018-Jun-20 15:12 UTC.
Position N 18°23' W 064°38'.
Warning: this ship's position is 8 days out of date.

Length 13 m.

Type: Sailing vessel. MMSI: 367762960.

Date/timePositionNaut miles runAvg speedWind from/ knotsBaromVisibWave heightAir tempDewpointWater temp
2018-Jun-11 15:50N 18°23' W 064°38'1 0.3
2018-Jun-11 13:16N 18°23' W 064°39'2 6.9
2018-Jun-11 13:00N 18°23' W 064°41'2 2.7
2018-Jun-11 12:25N 18°23' W 064°42'0 0.0
2018-Jun-11 11:55N 18°23' W 064°42'2 5.4
2018-Jun-11 11:29N 18°23' W 064°45'4 7.5
2018-Jun-11 10:59N 18°21' W 064°48'2 0.1
2018-Jun-09 14:26N 18°19' W 064°50'2 4.5
2018-Jun-09 13:57N 18°20' W 064°48'0 0.0
2018-Jun-09 13:27N 18°20' W 064°48'0 0.0
2018-Jun-09 12:51N 18°20' W 064°48'0 0.0
2018-Jun-09 12:27N 18°20' W 064°48'0 0.0
2018-Jun-09 11:57N 18°20' W 064°48'0 0.0
2018-Jun-09 11:27N 18°20' W 064°48'0 0.0
2018-Jun-09 10:57N 18°20' W 064°48'0 0.0
2018-Jun-09 10:27N 18°20' W 064°48'0 0.0
2018-Jun-09 09:57N 18°20' W 064°48'0 0.0
2018-Jun-09 09:27N 18°20' W 064°48'0 0.0
2018-Jun-09 08:57N 18°20' W 064°48'0 0.0
2018-Jun-09 03:38N 18°20' W 064°48'0 0.0
2018-Jun-09 03:27N 18°20' W 064°48'0 0.0
2018-Jun-09 02:57N 18°20' W 064°48'0 0.0
2018-Jun-09 02:27N 18°20' W 064°48'0 0.0
2018-Jun-09 01:57N 18°20' W 064°48'0 0.0
2018-Jun-09 01:26N 18°20' W 064°48'0 0.0
2018-Jun-09 00:57N 18°20' W 064°48'0 0.0
2018-Jun-09 00:20N 18°20' W 064°48'0 0.0
2018-Jun-08 23:57N 18°20' W 064°48'0 0.0
2018-Jun-08 23:27N 18°20' W 064°48'0 0.0
2018-Jun-08 22:56N 18°20' W 064°48'0 0.0
2018-Jun-08 22:27N 18°20' W 064°48'0 0.0
2018-Jun-08 21:50N 18°20' W 064°48'0 0.0
2018-Jun-08 21:21N 18°20' W 064°48'0 0.0
2018-Jun-08 20:51N 18°20' W 064°48'0 0.0
2018-Jun-08 20:27N 18°20' W 064°48'0 0.0
2018-Jun-08 19:51N 18°20' W 064°48'0 0.0
2018-Jun-08 19:26N 18°20' W 064°48'0 0.7
2018-Jun-08 19:01N 18°20' W 064°48'  
2018-Jun-05 17:22N 18°26' W 064°41'0 1.3
2018-Jun-05 17:01N 18°26' W 064°42'2 2.5
2018-Jun-05 16:11N 18°25' W 064°43'1 2.8
2018-Jun-05 15:54N 18°24' W 064°44'1 1.8
2018-Jun-05 15:28N 18°25' W 064°44'1 1.7
2018-Jun-05 15:00N 18°25' W 064°45'1 2.6
2018-Jun-05 14:27N 18°27' W 064°45'0 0.0
2018-Jun-05 13:45N 18°27' W 064°45'0 0.0
2018-Jun-05 12:03N 18°27' W 064°45'0 0.0
2018-Jun-05 11:03N 18°27' W 064°45'0 0.0
2018-Jun-05 10:51N 18°27' W 064°45'0 0.0
2018-Jun-05 10:27N 18°27' W 064°45'0 0.0
2018-Jun-05 09:57N 18°27' W 064°45'0 0.0
2018-Jun-05 09:30N 18°27' W 064°45'0 0.0
2018-Jun-05 08:30N 18°27' W 064°45'0 0.0
2018-Jun-05 07:57N 18°27' W 064°45'0 0.0
2018-Jun-05 07:21N 18°27' W 064°45'0 0.0
2018-Jun-05 06:54N 18°27' W 064°45'0 0.0
2018-Jun-05 06:30N 18°27' W 064°45'0 0.0
2018-Jun-05 05:57N 18°27' W 064°45'0 0.0
2018-Jun-05 05:27N 18°27' W 064°45'0 0.0
2018-Jun-05 04:54N 18°27' W 064°45'0 0.0
2018-Jun-05 04:30N 18°27' W 064°45'0 0.0
2018-Jun-05 04:00N 18°27' W 064°45'0 0.0
2018-Jun-05 03:27N 18°27' W 064°45'0 0.0
2018-Jun-05 02:45N 18°27' W 064°45'0 0.0
2018-Jun-05 02:21N 18°27' W 064°45'0 0.0
2018-Jun-05 01:51N 18°27' W 064°45'0 0.0
2018-Jun-05 01:18N 18°27' W 064°45'0 0.0
2018-Jun-05 00:51N 18°27' W 064°45'0 0.0
2018-Jun-05 00:30N 18°27' W 064°45'0 0.0
2018-Jun-04 23:54N 18°27' W 064°45'0 0.0
2018-Jun-04 23:27N 18°27' W 064°45'0 0.0
2018-Jun-04 22:57N 18°27' W 064°45'0 0.0
2018-Jun-04 22:21N 18°27' W 064°45'0 0.0
2018-Jun-04 21:57N 18°27' W 064°45'0 0.0
2018-Jun-04 21:21N 18°27' W 064°45'0 0.0
2018-Jun-04 20:57N 18°27' W 064°45'0 0.0
2018-Jun-04 20:21N 18°27' W 064°45'0 0.0
2018-Jun-04 19:51N 18°27' W 064°45'0 0.0
2018-Jun-04 19:15N 18°27' W 064°45'0 0.0
2018-Jun-04 18:51N 18°27' W 064°45'0 0.0
2018-Jun-04 18:15N 18°27' W 064°45'1 0.4
2018-Jun-04 16:46N 18°26' W 064°45'0 1.4
2018-Jun-04 16:29N 18°26' W 064°46'2 3.8
2018-Jun-04 16:00N 18°24' W 064°46'3 5.5
2018-Jun-04 15:30N 18°22' W 064°45'0 0.1
2018-Jun-04 14:51N 18°22' W 064°45'0 0.0
2018-Jun-04 14:30N 18°22' W 064°45'1 2.0
2018-Jun-04 13:58N 18°22' W 064°46'2 3.3
2018-Jun-04 13:24N 18°21' W 064°48'0 0.0
2018-Jun-04 12:57N 18°21' W 064°48'0 0.0
2018-Jun-04 12:27N 18°21' W 064°48'0 0.0
2018-Jun-04 11:57N 18°21' W 064°48'0 0.0
2018-Jun-04 11:30N 18°21' W 064°48'0 0.0
2018-Jun-04 10:57N 18°21' W 064°48'0 0.0
2018-Jun-04 10:24N 18°21' W 064°48'0 0.0
2018-Jun-04 10:00N 18°21' W 064°48'0 0.0
2018-Jun-04 09:03N 18°21' W 064°48'0 0.0
2018-Jun-04 08:57N 18°21' W 064°48'  
Track history (hours):
 
Tides and Currents Weather Stations Pressure Air Temp Water Temp Dewpoint Dewpoint Depression Visibility Wind Speed Wind Dir Waves Ship Positions

Blue Kite

Owner: Blue Kite Management LLC, Saint James, NY. More information available from US FCC via Universal Licensing System.

Last reported at 2018-Jun-11 15:50 UTC. Time now 2018-Jun-20 15:12 UTC.
Position N 18°23' W 064°38'.
Warning: this ship's position is 8 days out of date.

Length 13 m.

Type: Sailing vessel. MMSI: 367762960.

Date/timePositionNaut miles runAvg speedWind from/ knotsBaromVisibWave heightAir tempDewpointWater temp
2018-Jun-11 15:50N 18°23' W 064°38'1 0.3
2018-Jun-11 13:16N 18°23' W 064°39'2 6.9
2018-Jun-11 13:00N 18°23' W 064°41'2 2.7
2018-Jun-11 12:25N 18°23' W 064°42'0 0.0
2018-Jun-11 11:55N 18°23' W 064°42'2 5.4
2018-Jun-11 11:29N 18°23' W 064°45'4 7.5
2018-Jun-11 10:59N 18°21' W 064°48'2 0.1
2018-Jun-09 14:26N 18°19' W 064°50'2 4.5
2018-Jun-09 13:57N 18°20' W 064°48'0 0.0
2018-Jun-09 13:27N 18°20' W 064°48'0 0.0
2018-Jun-09 12:51N 18°20' W 064°48'0 0.0
2018-Jun-09 12:27N 18°20' W 064°48'0 0.0
2018-Jun-09 11:57N 18°20' W 064°48'0 0.0
2018-Jun-09 11:27N 18°20' W 064°48'0 0.0
2018-Jun-09 10:57N 18°20' W 064°48'0 0.0
2018-Jun-09 10:27N 18°20' W 064°48'0 0.0
2018-Jun-09 09:57N 18°20' W 064°48'0 0.0
2018-Jun-09 09:27N 18°20' W 064°48'0 0.0
2018-Jun-09 08:57N 18°20' W 064°48'0 0.0
2018-Jun-09 03:38N 18°20' W 064°48'0 0.0
2018-Jun-09 03:27N 18°20' W 064°48'0 0.0
2018-Jun-09 02:57N 18°20' W 064°48'0 0.0
2018-Jun-09 02:27N 18°20' W 064°48'0 0.0
2018-Jun-09 01:57N 18°20' W 064°48'0 0.0
2018-Jun-09 01:26N 18°20' W 064°48'0 0.0
2018-Jun-09 00:57N 18°20' W 064°48'0 0.0
2018-Jun-09 00:20N 18°20' W 064°48'0 0.0
2018-Jun-08 23:57N 18°20' W 064°48'0 0.0
2018-Jun-08 23:27N 18°20' W 064°48'0 0.0
2018-Jun-08 22:56N 18°20' W 064°48'0 0.0
2018-Jun-08 22:27N 18°20' W 064°48'0 0.0
2018-Jun-08 21:50N 18°20' W 064°48'0 0.0
2018-Jun-08 21:21N 18°20' W 064°48'0 0.0
2018-Jun-08 20:51N 18°20' W 064°48'0 0.0
2018-Jun-08 20:27N 18°20' W 064°48'0 0.0
2018-Jun-08 19:51N 18°20' W 064°48'0 0.0
2018-Jun-08 19:26N 18°20' W 064°48'0 0.7
2018-Jun-08 19:01N 18°20' W 064°48'  
2018-Jun-05 17:22N 18°26' W 064°41'0 1.3
2018-Jun-05 17:01N 18°26' W 064°42'2 2.5
2018-Jun-05 16:11N 18°25' W 064°43'1 2.8
2018-Jun-05 15:54N 18°24' W 064°44'1 1.8
2018-Jun-05 15:28N 18°25' W 064°44'1 1.7
2018-Jun-05 15:00N 18°25' W 064°45'1 2.6
2018-Jun-05 14:27N 18°27' W 064°45'0 0.0
2018-Jun-05 13:45N 18°27' W 064°45'0 0.0
2018-Jun-05 12:03N 18°27' W 064°45'0 0.0
2018-Jun-05 11:03N 18°27' W 064°45'0 0.0
2018-Jun-05 10:51N 18°27' W 064°45'0 0.0
2018-Jun-05 10:27N 18°27' W 064°45'0 0.0
2018-Jun-05 09:57N 18°27' W 064°45'0 0.0
2018-Jun-05 09:30N 18°27' W 064°45'0 0.0
2018-Jun-05 08:30N 18°27' W 064°45'0 0.0
2018-Jun-05 07:57N 18°27' W 064°45'0 0.0
2018-Jun-05 07:21N 18°27' W 064°45'0 0.0
2018-Jun-05 06:54N 18°27' W 064°45'0 0.0
2018-Jun-05 06:30N 18°27' W 064°45'0 0.0
2018-Jun-05 05:57N 18°27' W 064°45'0 0.0
2018-Jun-05 05:27N 18°27' W 064°45'0 0.0
2018-Jun-05 04:54N 18°27' W 064°45'0 0.0
2018-Jun-05 04:30N 18°27' W 064°45'0 0.0
2018-Jun-05 04:00N 18°27' W 064°45'0 0.0
2018-Jun-05 03:27N 18°27' W 064°45'0 0.0
2018-Jun-05 02:45N 18°27' W 064°45'0 0.0
2018-Jun-05 02:21N 18°27' W 064°45'0 0.0
2018-Jun-05 01:51N 18°27' W 064°45'0 0.0
2018-Jun-05 01:18N 18°27' W 064°45'0 0.0
2018-Jun-05 00:51N 18°27' W 064°45'0 0.0
2018-Jun-05 00:30N 18°27' W 064°45'0 0.0
2018-Jun-04 23:54N 18°27' W 064°45'0 0.0
2018-Jun-04 23:27N 18°27' W 064°45'0 0.0
2018-Jun-04 22:57N 18°27' W 064°45'0 0.0
2018-Jun-04 22:21N 18°27' W 064°45'0 0.0
2018-Jun-04 21:57N 18°27' W 064°45'0 0.0
2018-Jun-04 21:21N 18°27' W 064°45'0 0.0
2018-Jun-04 20:57N 18°27' W 064°45'0 0.0
2018-Jun-04 20:21N 18°27' W 064°45'0 0.0
2018-Jun-04 19:51N 18°27' W 064°45'0 0.0
2018-Jun-04 19:15N 18°27' W 064°45'0 0.0
2018-Jun-04 18:51N 18°27' W 064°45'0 0.0
2018-Jun-04 18:15N 18°27' W 064°45'1 0.4
2018-Jun-04 16:46N 18°26' W 064°45'0 1.4
2018-Jun-04 16:29N 18°26' W 064°46'2 3.8
2018-Jun-04 16:00N 18°24' W 064°46'3 5.5
2018-Jun-04 15:30N 18°22' W 064°45'0 0.1
2018-Jun-04 14:51N 18°22' W 064°45'0 0.0
2018-Jun-04 14:30N 18°22' W 064°45'1 2.0
2018-Jun-04 13:58N 18°22' W 064°46'2 3.3
2018-Jun-04 13:24N 18°21' W 064°48'0 0.0
2018-Jun-04 12:57N 18°21' W 064°48'0 0.0
2018-Jun-04 12:27N 18°21' W 064°48'0 0.0
2018-Jun-04 11:57N 18°21' W 064°48'0 0.0
2018-Jun-04 11:30N 18°21' W 064°48'0 0.0
2018-Jun-04 10:57N 18°21' W 064°48'0 0.0
2018-Jun-04 10:24N 18°21' W 064°48'0 0.0
2018-Jun-04 10:00N 18°21' W 064°48'0 0.0
2018-Jun-04 09:03N 18°21' W 064°48'0 0.0
2018-Jun-04 08:57N 18°21' W 064°48'  

Dump ship's entire track history